createdAt,value
2019-02-20T00:00:11.850Z,10.27
2019-02-20T00:02:40.727Z,7.30
2019-02-20T00:05:09.649Z,7.73
2019-02-20T00:07:38.489Z,8.10
2019-02-20T00:10:07.637Z,8.03
2019-02-20T00:12:36.692Z,8.87
2019-02-20T00:15:06.904Z,8.47
2019-02-20T00:17:35.773Z,8.17
2019-02-20T00:20:06.111Z,9.00
2019-02-20T00:22:40.210Z,8.97
2019-02-20T00:25:07.313Z,9.27
2019-02-20T00:27:36.489Z,9.60
2019-02-20T00:30:07.961Z,7.70
2019-02-20T00:32:36.806Z,9.63
2019-02-20T00:35:06.821Z,8.10
2019-02-20T00:37:35.676Z,9.20
2019-02-20T00:40:06.536Z,7.70
2019-02-20T00:42:35.450Z,8.57
2019-02-20T00:45:06.673Z,7.67
2019-02-20T00:47:37.098Z,9.23
2019-02-20T00:50:07.013Z,9.33
2019-02-20T00:52:49.420Z,9.27
2019-02-20T00:55:11.206Z,8.37
2019-02-20T00:57:40.052Z,8.47
2019-02-20T01:00:12.019Z,8.90
2019-02-20T01:02:40.926Z,8.90
2019-02-20T01:05:09.908Z,8.70
2019-02-20T01:07:38.851Z,8.57
2019-02-20T01:10:08.981Z,8.60
2019-02-20T01:12:37.930Z,9.60
2019-02-20T01:15:09.780Z,9.67
2019-02-20T01:17:38.692Z,9.70
2019-02-20T01:20:09.951Z,9.90
2019-02-20T01:22:38.788Z,9.67
2019-02-20T01:25:07.656Z,9.63
2019-02-20T01:27:36.285Z,9.43
2019-02-20T01:30:07.601Z,8.73
2019-02-20T01:32:36.262Z,9.20
2019-02-20T01:35:05.097Z,9.43
2019-02-20T01:37:33.796Z,9.13
2019-02-20T01:40:02.482Z,10.97
2019-02-20T01:42:31.118Z,10.93
2019-02-20T01:44:59.732Z,9.33
2019-02-20T01:47:28.385Z,10.07
2019-02-20T01:49:57.006Z,10.03
2019-02-20T01:52:25.631Z,9.33
2019-02-20T01:54:54.286Z,8.73
2019-02-20T01:57:22.916Z,8.97
2019-02-20T01:59:51.543Z,8.00
2019-02-20T02:02:20.203Z,8.77
2019-02-20T02:04:48.818Z,8.10
2019-02-20T02:07:17.445Z,9.03
2019-02-20T02:09:46.104Z,9.03
2019-02-20T02:12:14.724Z,8.23
2019-02-20T02:14:43.360Z,9.20
2019-02-20T02:17:12.017Z,9.17
2019-02-20T02:19:40.636Z,9.17
2019-02-20T02:22:09.265Z,7.67
2019-02-20T02:24:37.946Z,8.97
2019-02-20T02:27:06.570Z,9.70
2019-02-20T02:29:35.202Z,9.83
2019-02-20T02:32:03.847Z,8.13
2019-02-20T02:34:32.469Z,9.53
2019-02-20T02:37:01.114Z,9.60
2019-02-20T02:39:29.768Z,9.43
2019-02-20T02:41:58.394Z,9.73
2019-02-20T02:44:27.009Z,9.27
2019-02-20T02:46:55.690Z,11.50
2019-02-20T02:49:24.314Z,10.17
2019-02-20T02:51:52.920Z,10.17
2019-02-20T02:54:21.582Z,8.33
2019-02-20T02:56:50.214Z,9.13
2019-02-20T02:59:18.852Z,9.90
2019-02-20T03:01:47.496Z,7.87
2019-02-20T03:04:16.134Z,9.67
2019-02-20T03:06:44.752Z,9.57
2019-02-20T03:09:13.401Z,8.80
2019-02-20T03:11:42.020Z,8.33
2019-02-20T03:14:10.647Z,8.63
2019-02-20T03:16:39.317Z,9.33
2019-02-20T03:19:07.944Z,8.60
2019-02-20T03:21:36.553Z,9.40
2019-02-20T03:24:05.200Z,9.83
2019-02-20T03:26:33.821Z,8.73
2019-02-20T03:29:02.449Z,11.00
2019-02-20T03:31:31.111Z,8.90
2019-02-20T03:33:59.781Z,9.33
2019-02-20T03:36:28.441Z,10.43
2019-02-20T03:38:57.110Z,10.03
2019-02-20T03:41:25.957Z,10.00
2019-02-20T03:43:54.562Z,9.50
2019-02-20T03:46:23.221Z,11.63
2019-02-20T03:48:51.852Z,11.47
2019-02-20T03:51:20.469Z,10.63
2019-02-20T03:53:51.953Z,9.97
2019-02-20T03:56:19.472Z,9.70
2019-02-20T03:58:48.096Z,10.67
2019-02-20T04:01:16.739Z,9.17
2019-02-20T04:03:45.364Z,9.33
2019-02-20T04:06:13.991Z,10.17
2019-02-20T04:08:42.651Z,9.87
2019-02-20T04:11:11.270Z,9.67
2019-02-20T04:13:39.904Z,10.67
2019-02-20T04:16:08.570Z,8.67
2019-02-20T04:18:37.199Z,9.60
2019-02-20T04:21:05.849Z,10.10
2019-02-20T04:23:34.479Z,8.83
2019-02-20T04:26:03.139Z,8.13
2019-02-20T04:28:31.736Z,8.33
2019-02-20T04:31:00.389Z,8.97
2019-02-20T04:33:29.009Z,9.53
2019-02-20T04:35:57.630Z,8.03
2019-02-20T04:38:26.289Z,8.13
2019-02-20T04:40:54.925Z,8.93
2019-02-20T04:43:23.619Z,9.53
2019-02-20T04:45:52.283Z,10.23
2019-02-20T04:48:20.912Z,8.67
2019-02-20T04:50:49.526Z,9.03
2019-02-20T04:53:18.190Z,10.37
2019-02-20T04:55:46.805Z,8.63
2019-02-20T04:58:20.641Z,9.40
2019-02-20T05:00:49.292Z,9.43
2019-02-20T05:03:17.916Z,10.10
2019-02-20T05:05:46.547Z,10.37
2019-02-20T05:08:15.200Z,9.80
2019-02-20T05:10:43.829Z,8.80
2019-02-20T05:13:12.455Z,10.23
2019-02-20T05:15:41.204Z,10.00
2019-02-20T05:18:09.837Z,10.33
2019-02-20T05:20:38.620Z,8.50
2019-02-20T05:23:07.282Z,8.17
2019-02-20T05:25:35.985Z,9.87
2019-02-20T05:28:04.611Z,10.57
2019-02-20T05:30:33.263Z,9.87
2019-02-20T05:33:01.910Z,15.63
2019-02-20T05:35:30.533Z,11.93
2019-02-20T05:37:59.267Z,12.20
2019-02-20T05:40:27.942Z,10.87
2019-02-20T05:42:56.541Z,10.60
2019-02-20T05:45:25.204Z,10.93
2019-02-20T05:47:53.832Z,10.83
2019-02-20T05:50:22.462Z,8.47
2019-02-20T05:52:51.198Z,10.43
2019-02-20T05:55:19.838Z,9.83
2019-02-20T05:57:48.467Z,12.07
2019-02-20T06:03:47.109Z,13.43
2019-02-20T06:06:15.738Z,12.53
2019-02-20T06:08:44.372Z,9.37
2019-02-20T06:11:15.212Z,11.10
2019-02-20T06:13:43.424Z,9.63
2019-02-20T06:16:12.069Z,26.60
2019-02-20T06:18:40.777Z,18.27
2019-02-20T06:21:09.362Z,17.70
2019-02-20T06:23:37.998Z,19.77
2019-02-20T06:26:06.672Z,43.27
2019-02-20T06:28:35.299Z,21.57
2019-02-20T06:31:03.927Z,18.67
2019-02-20T06:33:33.062Z,16.27
2019-02-20T06:36:01.698Z,17.67
2019-02-20T06:38:30.322Z,17.50
2019-02-20T06:40:59.000Z,16.37
2019-02-20T06:43:27.610Z,18.20
2019-02-20T06:45:56.241Z,18.17
2019-02-20T06:48:24.911Z,18.30
2019-02-20T06:50:53.534Z,19.47
2019-02-20T06:53:22.188Z,20.53
2019-02-20T06:55:50.864Z,20.93
2019-02-20T06:58:19.567Z,18.40
2019-02-20T07:00:48.204Z,17.63
2019-02-20T07:03:16.873Z,18.17
2019-02-20T07:05:45.494Z,19.37
2019-02-20T07:08:35.561Z,18.40
2019-02-20T07:11:09.785Z,18.50
2019-02-20T07:14:02.170Z,17.67
2019-02-20T07:16:49.978Z,17.70
2019-02-20T07:19:21.560Z,16.57
2019-02-20T07:21:58.870Z,15.43
2019-02-20T07:24:33.164Z,16.60
2019-02-20T07:27:07.283Z,15.53
2019-02-20T07:30:00.576Z,13.60
2019-02-20T07:32:29.179Z,18.17
2019-02-20T07:34:57.804Z,19.47
2019-02-20T07:37:26.471Z,26.00
2019-02-20T07:39:55.095Z,19.67
2019-02-20T07:42:23.819Z,16.93
2019-02-20T07:44:52.479Z,18.90
2019-02-20T07:47:21.115Z,17.53
2019-02-20T07:49:49.749Z,19.90
2019-02-20T07:52:18.410Z,18.13
2019-02-20T07:54:47.030Z,20.53
2019-02-20T07:57:15.659Z,23.43
2019-02-20T07:59:44.338Z,20.87
2019-02-20T08:02:12.970Z,23.57
2019-02-20T08:04:41.613Z,25.53
2019-02-20T08:07:10.269Z,26.47
2019-02-20T08:09:38.895Z,23.33
2019-02-20T08:12:07.523Z,25.43
2019-02-20T08:14:36.190Z,22.00
2019-02-20T08:17:04.825Z,20.03
2019-02-20T08:19:33.450Z,19.30
2019-02-20T08:22:02.117Z,19.83
2019-02-20T08:24:30.736Z,21.07
2019-02-20T08:26:59.355Z,18.83
2019-02-20T08:29:28.046Z,19.93
2019-02-20T08:31:56.642Z,20.50
2019-02-20T08:34:25.280Z,22.53
2019-02-20T08:36:53.934Z,23.03
2019-02-20T08:39:22.565Z,26.20
2019-02-20T08:41:51.195Z,25.30
2019-02-20T08:44:19.855Z,25.77
2019-02-20T08:46:48.484Z,26.13
2019-02-20T08:49:17.120Z,28.63
2019-02-20T08:51:45.790Z,26.23
2019-02-20T08:54:14.424Z,25.43
2019-02-20T08:56:43.049Z,27.77
2019-02-20T08:59:11.717Z,25.87
2019-02-20T09:01:40.336Z,25.57
2019-02-20T09:04:08.968Z,22.73
2019-02-20T09:06:37.637Z,21.97
2019-02-20T09:09:06.272Z,24.53
2019-02-20T09:11:34.898Z,22.33
2019-02-20T09:14:03.573Z,18.33
2019-02-20T09:16:32.202Z,15.83
2019-02-20T09:19:00.835Z,13.50
2019-02-20T09:21:29.626Z,12.77
2019-02-20T09:23:58.192Z,8.23
2019-02-20T09:26:26.819Z,8.93
2019-02-20T09:28:56.735Z,14.70
2019-02-20T09:31:25.555Z,9.03
2019-02-20T09:33:54.175Z,8.10
2019-02-20T09:36:22.850Z,7.63
2019-02-20T09:38:51.481Z,5.80
2019-02-20T09:41:20.105Z,5.50
2019-02-20T09:43:48.839Z,8.07
2019-02-20T09:46:17.463Z,7.77
2019-02-20T09:48:46.087Z,8.50
2019-02-20T09:51:14.753Z,13.10
2019-02-20T09:53:43.387Z,6.80
2019-02-20T09:56:12.012Z,6.70
2019-02-20T09:58:40.675Z,6.40
2019-02-20T10:01:09.300Z,5.27
2019-02-20T10:03:37.930Z,6.80
2019-02-20T10:06:06.594Z,6.13
2019-02-20T10:08:35.215Z,6.47
2019-02-20T10:11:03.846Z,5.73
2019-02-20T10:13:32.514Z,5.43
2019-02-20T10:16:01.130Z,4.70
2019-02-20T10:18:29.769Z,5.27
2019-02-20T10:20:58.441Z,6.30
2019-02-20T10:23:27.060Z,5.47
2019-02-20T10:26:00.975Z,6.63
2019-02-20T10:28:26.080Z,6.90
2019-02-20T10:30:54.704Z,5.80
2019-02-20T10:33:23.327Z,6.07
2019-02-20T10:35:51.997Z,6.00
2019-02-20T10:38:20.616Z,7.50
2019-02-20T10:40:49.243Z,7.27
2019-02-20T10:43:17.906Z,6.70
2019-02-20T10:45:46.536Z,6.17
2019-02-20T10:48:15.154Z,5.57
2019-02-20T10:50:43.821Z,6.17
2019-02-20T10:53:12.446Z,5.57
2019-02-20T10:55:41.080Z,8.70
2019-02-20T10:58:09.738Z,6.20
2019-02-20T11:00:38.741Z,6.40
2019-02-20T11:03:07.374Z,7.70
2019-02-20T11:05:36.039Z,6.73
2019-02-20T11:08:04.659Z,5.60
2019-02-20T11:10:33.285Z,5.63
2019-02-20T11:13:02.018Z,4.90
2019-02-20T11:15:30.645Z,5.20
2019-02-20T11:17:59.277Z,5.40
2019-02-20T11:20:27.940Z,6.03
2019-02-20T11:22:56.567Z,5.80
2019-02-20T11:25:25.193Z,5.80
2019-02-20T11:27:53.852Z,6.40
2019-02-20T11:30:25.118Z,5.53
2019-02-20T11:32:53.743Z,6.03
2019-02-20T11:35:22.409Z,5.50
2019-02-20T11:37:51.035Z,5.10
2019-02-20T11:40:19.665Z,5.40
2019-02-20T11:42:48.331Z,4.27
2019-02-20T11:45:20.017Z,4.87
2019-02-20T11:47:48.649Z,5.03
2019-02-20T11:50:17.305Z,4.40
2019-02-20T11:52:45.934Z,4.70
2019-02-20T11:55:15.775Z,5.13
2019-02-20T11:57:44.449Z,5.53
2019-02-20T12:00:15.650Z,5.97
2019-02-20T12:02:44.275Z,4.50
2019-02-20T12:05:13.138Z,5.97
2019-02-20T12:07:41.766Z,5.53
2019-02-20T12:10:12.872Z,5.93
2019-02-20T12:12:41.607Z,6.00
2019-02-20T12:15:10.331Z,5.77
2019-02-20T12:17:38.962Z,5.83
2019-02-20T12:20:08.731Z,6.30
2019-02-20T12:22:37.459Z,6.77
2019-02-20T12:25:07.979Z,6.33
2019-02-20T12:27:36.648Z,5.87
2019-02-20T12:30:07.813Z,6.03
2019-02-20T12:32:36.438Z,6.13
2019-02-20T12:35:06.394Z,5.53
2019-02-20T12:37:35.022Z,5.57
2019-02-20T12:40:05.126Z,6.30
2019-02-20T12:42:33.867Z,5.70
2019-02-20T12:45:02.508Z,6.27
2019-02-20T12:47:31.132Z,6.00
2019-02-20T12:49:59.809Z,5.97
2019-02-20T12:52:28.440Z,7.00
2019-02-20T12:54:57.076Z,6.93
2019-02-20T12:57:25.915Z,6.90
2019-02-20T12:59:54.530Z,7.30
2019-02-20T13:02:23.226Z,6.60
2019-02-20T13:04:51.887Z,7.23
2019-02-20T13:07:20.520Z,6.73
2019-02-20T13:09:50.192Z,5.57
2019-02-20T13:12:18.905Z,6.03
2019-02-20T13:14:47.534Z,6.03
2019-02-20T13:17:16.167Z,5.57
2019-02-20T13:19:44.838Z,5.93
2019-02-20T13:22:13.473Z,6.80
2019-02-20T13:24:43.915Z,6.03
2019-02-20T13:27:12.641Z,6.60
2019-02-20T13:29:41.275Z,5.63
2019-02-20T13:32:09.913Z,6.23
2019-02-20T13:34:38.571Z,6.03
2019-02-20T13:37:07.201Z,6.70
2019-02-20T13:39:35.825Z,6.13
2019-02-20T13:42:04.560Z,5.43
2019-02-20T13:44:33.450Z,4.63
2019-02-20T13:47:02.085Z,5.03
2019-02-20T13:49:30.749Z,5.33
2019-02-20T13:51:59.379Z,5.00
2019-02-20T13:54:28.010Z,5.83
2019-02-20T13:57:01.829Z,6.13
2019-02-20T13:59:27.068Z,5.80
2019-02-20T14:01:55.936Z,5.77
2019-02-20T14:04:24.591Z,5.10
2019-02-20T14:06:53.222Z,4.27
2019-02-20T14:09:21.861Z,5.60
2019-02-20T14:11:50.523Z,5.57
2019-02-20T14:14:19.150Z,6.07
2019-02-20T14:16:47.779Z,6.43
2019-02-20T14:19:16.615Z,6.77
2019-02-20T14:21:45.245Z,6.53
2019-02-20T14:24:13.880Z,6.40
2019-02-20T14:26:42.620Z,10.87
2019-02-20T14:29:11.325Z,9.57
2019-02-20T14:31:39.952Z,9.90
2019-02-20T14:34:08.987Z,9.57
2019-02-20T14:36:37.685Z,9.93
2019-02-20T14:39:06.418Z,8.83
2019-02-20T14:41:35.082Z,6.87
2019-02-20T14:44:03.712Z,8.50
2019-02-20T14:46:32.346Z,7.47
2019-02-20T14:49:01.076Z,8.07
2019-02-20T14:51:30.045Z,7.97
2019-02-20T14:53:58.672Z,8.90
2019-02-20T14:56:27.341Z,8.37
2019-02-20T14:58:55.967Z,8.27
2019-02-20T15:01:24.596Z,8.80
2019-02-20T15:03:53.332Z,8.80
2019-02-20T15:06:21.958Z,8.03
2019-02-20T15:08:50.591Z,7.57
2019-02-20T15:11:19.348Z,8.07
2019-02-20T15:13:48.055Z,9.00
2019-02-20T15:16:16.748Z,8.87
2019-02-20T15:18:45.419Z,7.20
2019-02-20T15:21:14.119Z,8.13
2019-02-20T15:23:43.133Z,8.93
2019-02-20T15:26:11.799Z,8.80
2019-02-20T15:28:40.506Z,8.87
2019-02-20T15:31:09.130Z,7.50
2019-02-20T15:33:37.809Z,8.57
2019-02-20T15:36:06.415Z,8.30
2019-02-20T15:38:35.100Z,9.23
2019-02-20T15:41:04.020Z,9.10
2019-02-20T15:43:32.729Z,8.77
2019-02-20T15:46:01.421Z,9.13
2019-02-20T15:48:30.157Z,9.30
2019-02-20T15:50:58.853Z,10.80
2019-02-20T15:53:27.479Z,10.70
2019-02-20T15:55:56.153Z,10.63
2019-02-20T15:58:24.783Z,11.23
2019-02-20T16:00:53.423Z,10.90
2019-02-20T16:03:22.075Z,9.60
2019-02-20T16:05:50.705Z,9.57
2019-02-20T16:08:19.412Z,11.50
2019-02-20T16:10:48.140Z,11.07
2019-02-20T16:13:17.122Z,10.87
2019-02-20T16:15:45.825Z,16.40
2019-02-20T16:18:14.483Z,9.70
2019-02-20T16:20:43.178Z,25.37
2019-02-20T16:23:11.874Z,11.20
2019-02-20T16:25:40.972Z,11.43
2019-02-20T16:28:09.611Z,13.53
2019-02-20T16:30:38.598Z,18.33
2019-02-20T16:33:07.337Z,14.70
2019-02-20T16:35:35.981Z,10.87
2019-02-20T16:38:04.621Z,10.70
2019-02-20T16:40:33.357Z,20.37
2019-02-20T16:43:03.808Z,14.27
2019-02-20T16:45:32.493Z,16.63
2019-02-20T16:48:01.161Z,15.53
2019-02-20T16:50:29.820Z,16.87
2019-02-20T16:52:58.536Z,11.23
2019-02-20T16:55:27.261Z,12.80
2019-02-20T16:57:56.998Z,13.33
2019-02-20T17:00:25.891Z,13.03
2019-02-20T17:02:57.304Z,9.93
2019-02-20T17:05:26.159Z,12.70
2019-02-20T17:07:54.939Z,10.33
2019-02-20T17:10:23.693Z,11.10
2019-02-20T17:12:52.607Z,11.03
2019-02-20T17:15:21.314Z,11.77
2019-02-20T17:17:50.442Z,10.93
2019-02-20T17:20:20.592Z,10.50
2019-02-20T17:22:49.303Z,10.90
2019-02-20T17:25:18.440Z,10.57
2019-02-20T17:27:47.167Z,11.67
2019-02-20T17:30:17.098Z,10.70
2019-02-20T17:32:46.210Z,8.73
2019-02-20T17:35:17.146Z,10.50
2019-02-20T17:37:46.002Z,8.53
2019-02-20T17:40:15.793Z,9.83
2019-02-20T17:42:44.488Z,8.80
2019-02-20T17:45:17.266Z,9.83
2019-02-20T17:47:46.299Z,11.13
2019-02-20T17:50:25.314Z,8.40
2019-02-20T17:52:53.985Z,9.13
2019-02-20T17:55:22.697Z,10.57
2019-02-20T17:57:51.389Z,9.00
2019-02-20T18:00:22.171Z,10.03
2019-02-20T18:02:50.862Z,9.47
2019-02-20T18:05:19.562Z,9.23
2019-02-20T18:07:51.020Z,8.97
2019-02-20T18:10:18.711Z,10.77
2019-02-20T18:12:47.412Z,7.90
2019-02-20T18:15:16.142Z,9.83
2019-02-20T18:17:44.855Z,9.40
2019-02-20T18:20:13.555Z,9.80
2019-02-20T18:22:43.772Z,9.63
2019-02-20T18:25:13.072Z,9.07
2019-02-20T18:27:41.757Z,10.00
2019-02-20T18:30:15.358Z,9.33
2019-02-20T18:32:44.059Z,10.47
2019-02-20T18:35:17.515Z,10.63
2019-02-20T18:37:46.240Z,10.70
2019-02-20T18:40:18.194Z,11.93
2019-02-20T18:42:46.907Z,11.13
2019-02-20T18:45:16.336Z,10.50
2019-02-20T18:47:45.047Z,10.13
2019-02-20T18:50:15.048Z,11.53
2019-02-20T18:52:43.779Z,8.67
2019-02-20T18:55:13.705Z,11.17
2019-02-20T18:57:42.402Z,11.23
2019-02-20T19:00:16.543Z,9.43
2019-02-20T19:02:45.276Z,9.87
2019-02-20T19:05:14.741Z,9.60
2019-02-20T19:07:43.496Z,11.07
2019-02-20T19:10:21.336Z,10.60
2019-02-20T19:13:07.931Z,9.10
2019-02-20T19:15:51.418Z,9.20
2019-02-20T19:18:25.746Z,10.57
2019-02-20T19:21:12.369Z,11.03
2019-02-20T19:24:00.269Z,9.30
2019-02-20T19:26:48.246Z,9.87
2019-02-20T19:29:39.270Z,11.13
2019-02-20T19:32:33.236Z,10.67
2019-02-20T19:35:22.743Z,10.20
2019-02-20T19:38:10.571Z,10.97
2019-02-20T19:41:15.340Z,11.07
2019-02-20T19:43:47.029Z,10.73
2019-02-20T19:46:41.287Z,12.17
2019-02-20T19:49:27.354Z,15.57
2019-02-20T19:52:19.951Z,13.63
2019-02-20T19:55:03.283Z,57.17
2019-02-20T19:57:40.442Z,48.43
2019-02-20T20:00:24.151Z,23.27
2019-02-20T20:02:58.630Z,19.20
2019-02-20T20:05:36.725Z,19.03
2019-02-20T20:08:29.176Z,25.00
2019-02-20T20:11:06.674Z,12.03
2019-02-20T20:14:11.139Z,17.13
2019-02-20T20:16:59.143Z,13.17
2019-02-20T20:19:50.064Z,15.90
2019-02-20T20:22:33.375Z,11.20
2019-02-20T20:25:26.158Z,11.13
2019-02-20T20:28:18.893Z,10.80
2019-02-20T20:31:05.249Z,12.07
2019-02-20T20:33:54.545Z,10.27
2019-02-20T20:36:41.105Z,12.37
2019-02-20T20:39:18.717Z,9.27
2019-02-20T20:42:05.259Z,9.50
2019-02-20T20:44:36.882Z,12.17
2019-02-20T20:47:11.141Z,15.13
2019-02-20T20:49:45.539Z,11.53
2019-02-20T20:52:38.254Z,12.13
2019-02-20T20:55:27.908Z,12.07
2019-02-20T20:58:21.990Z,10.10
2019-02-20T21:00:59.126Z,11.03
2019-02-20T21:03:30.417Z,12.60
2019-02-20T21:06:13.727Z,12.23
2019-02-20T21:08:45.397Z,14.77
2019-02-20T21:11:19.738Z,20.73
2019-02-20T21:14:00.214Z,20.60
2019-02-20T21:16:51.226Z,21.40
2019-02-20T21:19:43.625Z,18.00
2019-02-20T21:22:30.046Z,34.73
2019-02-20T21:25:19.462Z,23.83
2019-02-20T21:28:13.450Z,22.13
2019-02-20T21:31:20.987Z,16.37
2019-02-20T21:34:01.440Z,15.33
2019-02-20T21:36:33.026Z,16.00
2019-02-20T21:39:23.889Z,11.50
2019-02-20T21:42:07.011Z,9.70
2019-02-20T21:44:47.291Z,10.77
2019-02-20T21:47:27.747Z,9.83
2019-02-20T21:50:22.633Z,10.93
2019-02-20T21:53:21.305Z,8.83
2019-02-20T21:56:01.915Z,9.83
2019-02-20T21:58:39.369Z,9.30
2019-02-20T22:01:35.158Z,11.23
2019-02-20T22:04:12.259Z,10.20
2019-02-20T22:07:01.837Z,10.77
2019-02-20T22:09:41.967Z,9.53
2019-02-20T22:12:19.235Z,9.57
2019-02-20T22:14:53.453Z,9.03
2019-02-20T22:17:39.620Z,10.17
2019-02-20T22:20:11.272Z,10.17
2019-02-20T22:22:57.807Z,10.37
2019-02-20T22:25:45.951Z,9.10
2019-02-20T22:28:23.365Z,8.43
2019-02-20T22:31:00.871Z,9.80
2019-02-20T22:33:50.112Z,9.83
2019-02-20T22:36:24.393Z,10.37
2019-02-20T22:39:15.392Z,9.53
2019-02-20T22:42:21.691Z,11.20
2019-02-20T22:45:11.889Z,10.83
2019-02-20T22:47:52.246Z,10.13
2019-02-20T22:50:35.624Z,11.60
2019-02-20T22:53:09.767Z,9.43
2019-02-20T22:55:58.993Z,11.83
2019-02-20T22:58:36.508Z,10.70
2019-02-20T23:01:17.214Z,9.37
2019-02-20T23:04:03.594Z,9.33
2019-02-20T23:06:53.118Z,8.90
2019-02-20T23:09:27.444Z,9.60
2019-02-20T23:12:18.380Z,13.17
2019-02-20T23:14:58.007Z,10.57
2019-02-20T23:17:27.558Z,9.53
2019-02-20T23:19:56.431Z,11.33
2019-02-20T23:22:25.172Z,10.00
2019-02-20T23:24:53.871Z,11.33
2019-02-20T23:27:22.546Z,10.80
2019-02-20T23:29:51.227Z,10.83
2019-02-20T23:32:19.852Z,12.53
2019-02-20T23:34:48.483Z,12.67
2019-02-20T23:37:17.159Z,10.67
2019-02-20T23:39:45.799Z,14.30
2019-02-20T23:42:14.437Z,13.00
2019-02-20T23:44:43.133Z,11.17
2019-02-20T23:47:11.746Z,12.00
2019-02-20T23:49:40.451Z,10.30
2019-02-20T23:52:09.196Z,12.83
2019-02-20T23:54:37.842Z,12.97
2019-02-20T23:57:06.468Z,11.47
2019-02-20T23:59:35.206Z,13.10
